createdAt,value
2018-07-25T00:02:12.712Z,8.60
2018-07-25T00:04:40.957Z,8.67
2018-07-25T00:07:09.205Z,8.70
2018-07-25T00:09:37.424Z,8.67
2018-07-25T00:12:05.708Z,8.40
2018-07-25T00:14:34.005Z,7.77
2018-07-25T00:17:02.259Z,8.43
2018-07-25T00:19:30.505Z,8.03
2018-07-25T00:21:58.772Z,7.97
2018-07-25T00:24:27.074Z,8.07
2018-07-25T00:26:55.309Z,7.80
2018-07-25T00:29:23.559Z,8.00
2018-07-25T00:31:51.836Z,7.70
2018-07-25T00:34:20.093Z,7.50
2018-07-25T00:36:48.349Z,7.67
2018-07-25T00:39:16.603Z,7.97
2018-07-25T00:41:44.838Z,7.20
2018-07-25T00:44:13.077Z,7.63
2018-07-25T00:46:41.335Z,7.37
2018-07-25T00:49:09.628Z,6.67
2018-07-25T00:51:37.907Z,6.23
2018-07-25T00:54:06.194Z,7.23
2018-07-25T00:56:34.547Z,6.80
2018-07-25T00:59:02.807Z,6.40
2018-07-25T01:01:31.102Z,6.53
2018-07-25T01:03:59.350Z,6.50
2018-07-25T01:06:27.620Z,6.80
2018-07-25T01:08:55.864Z,6.37
2018-07-25T01:11:24.132Z,6.13
2018-07-25T01:13:52.417Z,6.70
2018-07-25T01:16:20.936Z,6.73
2018-07-25T01:18:49.168Z,6.97
2018-07-25T01:21:17.423Z,6.37
2018-07-25T01:23:45.795Z,7.20
2018-07-25T01:26:14.110Z,6.23
2018-07-25T01:28:42.354Z,6.50
2018-07-25T01:31:10.647Z,6.13
2018-07-25T01:33:38.866Z,6.57
2018-07-25T01:36:07.147Z,6.40
2018-07-25T01:38:35.428Z,6.60
2018-07-25T01:41:03.736Z,6.87
2018-07-25T01:43:31.992Z,6.60
2018-07-25T01:46:00.256Z,6.23
2018-07-25T01:48:28.564Z,7.10
2018-07-25T01:50:56.869Z,7.10
2018-07-25T01:53:25.118Z,6.57
2018-07-25T01:55:53.447Z,6.50
2018-07-25T01:58:21.766Z,6.80
2018-07-25T02:00:50.098Z,6.60
2018-07-25T02:03:19.103Z,7.47
2018-07-25T02:05:47.392Z,6.73
2018-07-25T02:08:16.098Z,6.40
2018-07-25T02:10:45.628Z,6.97
2018-07-25T02:13:16.505Z,6.70
2018-07-25T02:15:45.199Z,6.53
2018-07-25T02:18:13.452Z,7.20
2018-07-25T02:20:41.744Z,7.10
2018-07-25T02:23:10.037Z,7.93
2018-07-25T02:25:38.292Z,7.20
2018-07-25T02:28:06.632Z,7.40
2018-07-25T02:30:34.897Z,6.97
2018-07-25T02:33:03.176Z,7.23
2018-07-25T02:35:31.472Z,7.10
2018-07-25T02:37:59.740Z,7.50
2018-07-25T02:40:28.035Z,7.67
2018-07-25T02:42:56.275Z,8.23
2018-07-25T02:45:24.543Z,7.80
2018-07-25T02:47:52.808Z,7.37
2018-07-25T02:50:21.099Z,7.27
2018-07-25T02:52:49.395Z,7.20
2018-07-25T02:55:17.664Z,7.37
2018-07-25T02:57:45.971Z,7.53
2018-07-25T03:00:14.239Z,6.93
2018-07-25T03:02:42.512Z,7.37
2018-07-25T03:05:10.856Z,6.80
2018-07-25T03:07:39.099Z,6.60
2018-07-25T03:10:07.389Z,6.87
2018-07-25T03:12:35.638Z,7.30
2018-07-25T03:15:03.937Z,6.50
2018-07-25T03:17:32.230Z,6.90
2018-07-25T03:20:00.477Z,6.97
2018-07-25T03:22:28.745Z,6.43
2018-07-25T03:24:57.009Z,6.70
2018-07-25T03:27:25.268Z,6.67
2018-07-25T03:29:53.561Z,6.43
2018-07-25T03:32:21.892Z,7.07
2018-07-25T03:34:50.159Z,6.87
2018-07-25T03:37:18.423Z,7.50
2018-07-25T03:39:46.695Z,7.77
2018-07-25T03:42:14.963Z,8.53
2018-07-25T03:44:43.202Z,8.10
2018-07-25T03:47:11.472Z,7.77
2018-07-25T03:49:39.728Z,7.50
2018-07-25T03:52:08.030Z,6.90
2018-07-25T03:54:36.279Z,6.90
2018-07-25T03:57:04.803Z,7.30
2018-07-25T03:59:33.074Z,7.17
2018-07-25T04:02:01.345Z,7.67
2018-07-25T04:04:30.049Z,7.33
2018-07-25T04:06:58.312Z,7.00
2018-07-25T04:09:26.545Z,7.27
2018-07-25T04:11:54.809Z,7.17
2018-07-25T04:14:23.065Z,7.07
2018-07-25T04:16:51.456Z,6.37
2018-07-25T04:19:19.783Z,7.57
2018-07-25T04:21:48.017Z,7.30
2018-07-25T04:24:16.504Z,7.67
2018-07-25T04:26:44.759Z,7.43
2018-07-25T04:29:13.064Z,7.20
2018-07-25T04:31:41.309Z,7.70
2018-07-25T04:34:09.577Z,8.60
2018-07-25T04:36:37.823Z,6.93
2018-07-25T04:39:07.400Z,7.87
2018-07-25T04:41:35.754Z,7.27
2018-07-25T04:44:04.051Z,7.07
2018-07-25T04:46:32.374Z,7.63
2018-07-25T04:49:00.611Z,7.97
2018-07-25T04:51:28.852Z,8.07
2018-07-25T04:53:57.143Z,8.27
2018-07-25T04:56:25.451Z,6.83
2018-07-25T04:58:53.736Z,7.00
2018-07-25T05:01:22.001Z,7.97
2018-07-25T05:03:50.316Z,7.37
2018-07-25T05:06:18.562Z,6.73
2018-07-25T05:08:46.816Z,7.80
2018-07-25T05:11:15.079Z,7.83
2018-07-25T05:13:43.437Z,7.10
2018-07-25T05:16:11.693Z,6.40
2018-07-25T05:18:39.953Z,7.13
2018-07-25T05:21:08.264Z,7.20
2018-07-25T05:23:36.532Z,8.03
2018-07-25T05:26:04.828Z,7.03
2018-07-25T05:28:33.084Z,7.20
2018-07-25T05:31:01.352Z,6.77
2018-07-25T05:33:29.643Z,7.50
2018-07-25T05:35:57.889Z,7.10
2018-07-25T05:38:26.172Z,7.13
2018-07-25T05:40:54.424Z,5.93
2018-07-25T05:43:22.676Z,5.73
2018-07-25T05:45:50.938Z,6.27
2018-07-25T05:48:19.180Z,6.07
2018-07-25T05:50:47.449Z,6.53
2018-07-25T05:53:15.692Z,6.87
2018-07-25T05:55:43.929Z,6.20
2018-07-25T05:58:12.176Z,5.63
2018-07-25T06:00:40.471Z,6.60
2018-07-25T06:03:08.773Z,6.13
2018-07-25T06:05:36.972Z,5.63
2018-07-25T06:08:05.174Z,5.80
2018-07-25T06:10:34.100Z,5.80
2018-07-25T06:13:02.343Z,6.57
2018-07-25T06:15:30.652Z,5.50
2018-07-25T06:17:58.887Z,6.07
2018-07-25T06:20:27.090Z,6.43
2018-07-25T06:22:55.360Z,5.87
2018-07-25T06:25:23.559Z,5.80
2018-07-25T06:27:52.055Z,6.63
2018-07-25T06:30:20.248Z,6.23
2018-07-25T06:32:48.448Z,6.47
2018-07-25T06:35:16.751Z,6.20
2018-07-25T06:37:44.952Z,6.20
2018-07-25T06:40:13.210Z,5.80
2018-07-25T06:42:41.398Z,6.37
2018-07-25T06:45:09.608Z,5.83
2018-07-25T06:47:37.851Z,7.63
2018-07-25T06:50:07.152Z,6.10
2018-07-25T06:52:35.700Z,6.83
2018-07-25T06:55:04.126Z,6.70
2018-07-25T06:57:32.339Z,7.90
2018-07-25T07:00:00.577Z,8.27
2018-07-25T07:02:28.833Z,7.60
2018-07-25T07:04:57.384Z,9.67
2018-07-25T07:07:25.628Z,8.03
2018-07-25T07:09:53.828Z,7.10
2018-07-25T07:12:22.110Z,7.03
2018-07-25T07:14:50.380Z,7.40
2018-07-25T07:17:18.651Z,6.97
2018-07-25T07:19:46.887Z,7.70
2018-07-25T07:22:15.112Z,9.23
2018-07-25T07:24:43.716Z,8.17
2018-07-25T07:27:11.995Z,7.70
2018-07-25T07:29:40.234Z,7.33
2018-07-25T07:32:08.492Z,8.20
2018-07-25T07:34:36.706Z,8.47
2018-07-25T07:37:04.932Z,7.93
2018-07-25T07:39:33.164Z,7.57
2018-07-25T07:42:01.413Z,8.20
2018-07-25T07:44:29.807Z,8.47
2018-07-25T07:46:58.064Z,7.37
2018-07-25T07:49:26.329Z,7.40
2018-07-25T07:51:54.590Z,7.63
2018-07-25T07:54:22.866Z,7.47
2018-07-25T07:56:51.132Z,6.90
2018-07-25T07:59:19.464Z,6.80
2018-07-25T08:01:47.720Z,7.00
2018-07-25T08:04:15.987Z,7.20
2018-07-25T08:06:44.268Z,7.17
2018-07-25T08:09:13.389Z,7.37
2018-07-25T08:11:41.669Z,6.97
2018-07-25T08:14:09.925Z,7.40
2018-07-25T08:16:38.208Z,6.37
2018-07-25T08:19:06.897Z,6.77
2018-07-25T08:21:35.196Z,6.23
2018-07-25T08:24:03.513Z,6.57
2018-07-25T08:26:31.778Z,6.43
2018-07-25T08:29:00.050Z,5.97
2018-07-25T08:31:28.302Z,6.50
2018-07-25T08:33:56.586Z,5.50
2018-07-25T08:36:24.832Z,4.90
2018-07-25T08:38:53.084Z,5.13
2018-07-25T08:41:21.411Z,5.63
2018-07-25T08:43:49.674Z,5.73
2018-07-25T08:46:18.031Z,5.70
2018-07-25T08:48:46.289Z,5.47
2018-07-25T08:51:14.584Z,6.33
2018-07-25T08:53:42.845Z,6.10
2018-07-25T08:56:11.100Z,5.40
2018-07-25T08:58:39.384Z,4.77
2018-07-25T09:01:07.673Z,5.70
2018-07-25T09:03:35.938Z,5.57
2018-07-25T09:06:04.252Z,5.47
2018-07-25T09:08:32.522Z,5.20
2018-07-25T09:11:00.868Z,5.03
2018-07-25T09:13:29.199Z,4.80
2018-07-25T09:15:57.454Z,4.57
2018-07-25T09:18:27.821Z,5.00
2018-07-25T09:20:56.149Z,5.00
2018-07-25T09:23:24.473Z,5.33
2018-07-25T09:25:52.754Z,4.87
2018-07-25T09:28:21.031Z,5.07
2018-07-25T09:30:49.364Z,4.53
2018-07-25T09:33:17.649Z,4.90
2018-07-25T09:35:45.995Z,4.60
2018-07-25T09:38:14.258Z,4.40
2018-07-25T09:40:42.507Z,4.70
2018-07-25T09:43:11.460Z,4.03
2018-07-25T09:45:39.775Z,5.10
2018-07-25T09:48:08.092Z,4.40
2018-07-25T09:50:36.402Z,4.33
2018-07-25T09:53:04.705Z,4.83
2018-07-25T09:55:32.986Z,4.60
2018-07-25T09:58:01.277Z,4.90
2018-07-25T10:00:35.166Z,4.50
2018-07-25T10:03:03.474Z,4.20
2018-07-25T10:05:31.840Z,4.80
2018-07-25T10:08:00.100Z,4.70
2018-07-25T10:10:28.518Z,4.03
2018-07-25T10:12:56.824Z,4.20
2018-07-25T10:15:25.097Z,3.83
2018-07-25T10:17:53.406Z,4.33
2018-07-25T10:20:21.692Z,7.30
2018-07-25T10:22:49.960Z,4.90
2018-07-25T10:25:18.229Z,4.50
2018-07-25T10:27:46.520Z,4.23
2018-07-25T10:30:14.762Z,4.27
2018-07-25T10:32:42.981Z,4.30
2018-07-25T10:35:11.237Z,4.03
2018-07-25T10:37:39.447Z,4.20
2018-07-25T10:40:08.277Z,3.97
2018-07-25T10:42:36.608Z,4.37
2018-07-25T10:45:05.308Z,3.90
2018-07-25T10:47:33.544Z,3.65
2018-07-25T10:50:01.754Z,3.95
2018-07-25T10:52:29.972Z,4.42
2018-07-25T10:54:58.223Z,6.08
2018-07-25T10:57:26.433Z,4.65
2018-07-25T10:59:54.649Z,3.87
2018-07-25T11:02:22.915Z,3.90
2018-07-25T11:04:51.143Z,3.62
2018-07-25T11:07:19.428Z,3.75
2018-07-25T11:09:47.724Z,3.75
2018-07-25T11:12:15.908Z,3.80
2018-07-25T11:14:44.131Z,3.40
2018-07-25T11:17:13.401Z,4.37
2018-07-25T11:19:41.667Z,4.42
2018-07-25T11:22:09.892Z,5.08
2018-07-25T11:24:38.122Z,6.03
2018-07-25T11:27:06.388Z,5.40
2018-07-25T11:29:34.624Z,4.20
2018-07-25T11:32:02.989Z,3.75
2018-07-25T11:34:31.219Z,4.92
2018-07-25T11:36:59.511Z,3.50
2018-07-25T11:39:27.701Z,3.98
2018-07-25T11:41:55.899Z,3.65
2018-07-25T11:44:24.172Z,3.62
2018-07-25T11:46:52.427Z,4.45
2018-07-25T11:49:20.659Z,4.20
2018-07-25T11:51:48.886Z,4.35
2018-07-25T11:54:17.087Z,3.72
2018-07-25T11:56:45.329Z,3.80
2018-07-25T11:59:13.536Z,4.08
2018-07-25T12:01:41.844Z,4.00
2018-07-25T12:04:10.084Z,4.35
2018-07-25T12:06:38.449Z,3.70
2018-07-25T12:09:07.859Z,3.83
2018-07-25T12:11:40.400Z,3.55
2018-07-25T12:14:08.736Z,3.98
2018-07-25T12:16:36.971Z,3.70
2018-07-25T12:19:05.256Z,4.03
2018-07-25T12:21:33.564Z,3.60
2018-07-25T12:24:01.886Z,3.20
2018-07-25T12:26:30.153Z,3.00
2018-07-25T12:28:58.376Z,4.42
2018-07-25T12:31:26.627Z,3.12
2018-07-25T12:33:54.940Z,3.77
2018-07-25T12:36:23.171Z,3.47
2018-07-25T12:38:51.467Z,3.47
2018-07-25T12:41:19.732Z,5.58
2018-07-25T12:43:47.970Z,5.10
2018-07-25T12:46:16.246Z,3.15
2018-07-25T12:48:44.491Z,4.55
2018-07-25T12:51:12.739Z,3.50
2018-07-25T12:53:41.412Z,3.55
2018-07-25T12:56:09.616Z,3.27
2018-07-25T12:58:37.842Z,3.45
2018-07-25T13:01:06.128Z,3.58
2018-07-25T13:03:34.440Z,5.20
2018-07-25T13:06:02.701Z,3.87
2018-07-25T13:08:30.925Z,3.05
2018-07-25T13:10:59.252Z,3.33
2018-07-25T13:13:27.489Z,3.83
2018-07-25T13:15:55.802Z,3.47
2018-07-25T13:18:24.011Z,3.30
2018-07-25T13:20:52.243Z,3.58
2018-07-25T13:23:20.547Z,3.98
2018-07-25T13:25:48.778Z,3.35
2018-07-25T13:28:17.078Z,3.90
2018-07-25T13:30:45.432Z,6.92
2018-07-25T13:33:13.644Z,6.28
2018-07-25T13:35:41.937Z,4.20
2018-07-25T13:38:10.195Z,3.25
2018-07-25T13:40:38.468Z,3.17
2018-07-25T13:43:06.720Z,4.12
2018-07-25T13:45:34.999Z,3.25
2018-07-25T13:48:03.217Z,3.35
2018-07-25T13:50:31.492Z,2.60
2018-07-25T13:52:59.889Z,3.17
2018-07-25T13:55:28.175Z,2.90
2018-07-25T13:57:56.398Z,3.10
2018-07-25T14:00:24.667Z,3.20
2018-07-25T14:02:52.891Z,2.92
2018-07-25T14:05:21.321Z,3.15
2018-07-25T14:07:49.481Z,3.45
2018-07-25T14:10:17.716Z,3.22
2018-07-25T14:12:45.923Z,2.80
2018-07-25T14:15:14.160Z,4.30
2018-07-25T14:17:42.432Z,3.98
2018-07-25T14:20:10.732Z,5.33
2018-07-25T14:22:38.998Z,5.17
2018-07-25T14:25:07.252Z,7.72
2018-07-25T14:27:35.520Z,4.00
2018-07-25T14:30:03.787Z,3.42
2018-07-25T14:32:32.055Z,3.17
2018-07-25T14:35:00.299Z,3.20
2018-07-25T14:37:28.624Z,3.00
2018-07-25T14:39:56.986Z,4.03
2018-07-25T14:42:25.112Z,3.35
2018-07-25T14:44:53.364Z,4.37
2018-07-25T14:47:21.610Z,7.10
2018-07-25T14:49:49.885Z,4.85
2018-07-25T14:52:18.119Z,4.37
2018-07-25T14:54:46.331Z,4.20
2018-07-25T14:57:14.609Z,6.20
2018-07-25T14:59:42.868Z,3.70
2018-07-25T15:02:11.179Z,3.52
2018-07-25T15:04:39.411Z,3.40
2018-07-25T15:07:07.642Z,3.20
2018-07-25T15:09:35.886Z,3.70
2018-07-25T15:12:04.263Z,3.85
2018-07-25T15:14:32.496Z,3.75
2018-07-25T15:17:00.763Z,3.58
2018-07-25T15:19:29.087Z,3.20
2018-07-25T15:21:57.327Z,3.83
2018-07-25T15:24:25.609Z,4.60
2018-07-25T15:26:53.851Z,6.55
2018-07-25T15:31:56.656Z,4.55
2018-07-25T15:34:24.915Z,5.00
2018-07-25T15:36:53.843Z,4.45
2018-07-25T15:39:25.087Z,4.08
2018-07-25T15:41:54.248Z,3.47
2018-07-25T15:44:23.403Z,4.05
2018-07-25T15:46:51.698Z,4.25
2018-07-25T15:49:20.023Z,4.37
2018-07-25T15:51:48.264Z,4.03
2018-07-25T15:54:16.536Z,3.98
2018-07-25T15:56:44.797Z,4.00
2018-07-25T15:59:13.059Z,3.85
2018-07-25T16:01:41.377Z,3.98
2018-07-25T16:04:09.711Z,3.87
2018-07-25T16:06:37.944Z,4.67
2018-07-25T16:09:06.937Z,4.20
2018-07-25T16:11:35.224Z,5.12
2018-07-25T16:14:03.471Z,5.95
2018-07-25T16:16:31.694Z,3.92
2018-07-25T16:18:59.949Z,3.77
2018-07-25T16:21:28.187Z,4.20
2018-07-25T16:23:56.507Z,4.37
2018-07-25T16:26:24.723Z,3.83
2018-07-25T16:28:52.972Z,4.20
2018-07-25T16:31:21.355Z,4.20
2018-07-25T16:33:49.592Z,4.43
2018-07-25T16:36:17.892Z,5.83
2018-07-25T16:38:46.111Z,5.63
2018-07-25T16:41:14.356Z,4.80
2018-07-25T16:43:42.580Z,4.77
2018-07-25T16:46:10.830Z,4.92
2018-07-25T16:48:39.118Z,5.33
2018-07-25T16:51:07.379Z,5.30
2018-07-25T16:53:35.607Z,5.40
2018-07-25T16:56:03.908Z,5.07
2018-07-25T16:58:32.133Z,5.73
2018-07-25T17:01:00.343Z,6.40
2018-07-25T17:03:28.568Z,5.80
2018-07-25T17:05:56.839Z,5.47
2018-07-25T17:08:25.115Z,4.73
2018-07-25T17:10:53.339Z,5.57
2018-07-25T17:13:22.092Z,5.53
2018-07-25T17:15:50.341Z,6.57
2018-07-25T17:18:20.638Z,6.37
2018-07-25T17:20:49.914Z,6.43
2018-07-25T17:23:18.206Z,6.80
2018-07-25T17:25:46.543Z,7.17
2018-07-25T17:28:14.841Z,6.97
2018-07-25T17:30:43.143Z,7.10
2018-07-25T17:33:11.403Z,7.97
2018-07-25T17:35:39.759Z,7.90
2018-07-25T17:38:08.000Z,8.47
2018-07-25T17:40:36.404Z,8.87
2018-07-25T17:43:04.747Z,8.43
2018-07-25T17:45:33.013Z,8.23
2018-07-25T17:48:01.236Z,9.27
2018-07-25T17:50:29.484Z,9.57
2018-07-25T17:52:57.723Z,8.73
2018-07-25T17:55:26.005Z,9.57
2018-07-25T17:57:54.240Z,8.83
2018-07-25T18:00:22.501Z,9.30
2018-07-25T18:02:50.770Z,9.47
2018-07-25T18:05:18.996Z,9.77
2018-07-25T18:07:47.378Z,9.87
2018-07-25T18:10:15.607Z,9.03
2018-07-25T18:12:43.864Z,8.77
2018-07-25T18:15:12.156Z,9.10
2018-07-25T18:17:40.391Z,9.40
2018-07-25T18:20:08.794Z,8.50
2018-07-25T18:22:37.167Z,10.83
2018-07-25T18:25:05.716Z,9.50
2018-07-25T18:27:34.110Z,9.40
2018-07-25T18:30:02.373Z,8.73
2018-07-25T18:32:30.657Z,10.20
2018-07-25T18:34:58.879Z,9.20
2018-07-25T18:37:27.129Z,9.17
2018-07-25T18:39:55.364Z,9.03
2018-07-25T18:42:23.652Z,9.77
2018-07-25T18:44:51.875Z,8.77
2018-07-25T18:47:20.723Z,8.43
2018-07-25T18:49:48.952Z,8.87
2018-07-25T18:52:17.280Z,8.80
2018-07-25T18:54:46.033Z,8.60
2018-07-25T18:57:14.284Z,9.00
2018-07-25T18:59:42.491Z,9.70
2018-07-25T19:02:10.691Z,9.23
2018-07-25T19:04:38.925Z,9.43
2018-07-25T19:07:07.219Z,9.63
2018-07-25T19:09:36.071Z,10.03
2018-07-25T19:12:04.371Z,10.23
2018-07-25T19:14:38.157Z,10.10
2018-07-25T19:17:06.388Z,9.73
2018-07-25T19:19:34.627Z,10.50
2018-07-25T19:22:02.846Z,10.40
2018-07-25T19:24:31.174Z,10.43
2018-07-25T19:26:59.392Z,10.83
2018-07-25T19:29:27.618Z,10.03
2018-07-25T19:31:55.835Z,10.43
2018-07-25T19:34:24.028Z,9.83
2018-07-25T19:36:52.284Z,10.87
2018-07-25T19:39:20.490Z,10.97
2018-07-25T19:41:48.684Z,10.57
2018-07-25T19:44:16.913Z,11.07
2018-07-25T19:46:45.112Z,11.10
2018-07-25T19:49:13.390Z,11.17
2018-07-25T19:51:41.598Z,11.90
2018-07-25T19:54:09.835Z,11.80
2018-07-25T19:56:38.039Z,12.33
2018-07-25T19:59:06.251Z,13.97
2018-07-25T20:01:34.524Z,14.50
2018-07-25T20:04:02.739Z,13.40
2018-07-25T20:06:30.959Z,14.70
2018-07-25T20:08:59.171Z,13.90
2018-07-25T20:11:27.429Z,14.80
2018-07-25T20:14:01.202Z,13.60
2018-07-25T20:16:29.409Z,13.90
2018-07-25T20:18:57.613Z,13.17
2018-07-25T20:21:25.819Z,12.70
2018-07-25T20:23:54.047Z,12.50
2018-07-25T20:26:22.309Z,11.80
2018-07-25T20:28:50.519Z,12.00
2018-07-25T20:31:18.762Z,11.30
2018-07-25T20:33:46.973Z,12.03
2018-07-25T20:36:15.194Z,11.97
2018-07-25T20:38:43.441Z,11.53
2018-07-25T20:41:11.668Z,13.10
2018-07-25T20:43:39.926Z,12.43
2018-07-25T20:46:08.140Z,12.43
2018-07-25T20:48:37.100Z,12.13
2018-07-25T20:51:05.347Z,11.20
2018-07-25T20:53:33.609Z,12.37
2018-07-25T20:56:01.843Z,12.20
2018-07-25T20:58:30.076Z,11.27
2018-07-25T21:00:58.303Z,11.33
2018-07-25T21:03:26.555Z,11.40
2018-07-25T21:05:54.826Z,10.43
2018-07-25T21:08:23.203Z,11.27
2018-07-25T21:10:51.443Z,10.87
2018-07-25T21:13:19.770Z,11.73
2018-07-25T21:15:47.960Z,10.90
2018-07-25T21:18:16.165Z,11.77
2018-07-25T21:20:44.372Z,12.73
2018-07-25T21:23:12.615Z,11.77
2018-07-25T21:25:40.821Z,12.40
2018-07-25T21:28:09.120Z,12.97
2018-07-25T21:30:37.339Z,11.87
2018-07-25T21:33:06.273Z,11.27
2018-07-25T21:35:34.516Z,12.50
2018-07-25T21:38:02.848Z,12.53
2018-07-25T21:40:31.059Z,12.93
2018-07-25T21:42:59.743Z,12.63
2018-07-25T21:45:28.008Z,12.40
2018-07-25T21:47:56.705Z,12.07
2018-07-25T21:50:24.992Z,12.30
2018-07-25T21:52:53.576Z,12.87
2018-07-25T21:55:21.852Z,11.80
2018-07-25T21:57:50.110Z,12.33
2018-07-25T22:00:18.389Z,11.20
2018-07-25T22:02:47.293Z,11.10
2018-07-25T22:05:15.805Z,10.77
2018-07-25T22:07:45.190Z,11.37
2018-07-25T22:10:13.641Z,10.50
2018-07-25T22:12:42.021Z,10.63
2018-07-25T22:15:11.349Z,11.17
2018-07-25T22:17:40.494Z,11.83
2018-07-25T22:20:10.661Z,13.63
2018-07-25T22:22:39.008Z,12.97
2018-07-25T22:25:07.920Z,12.63
2018-07-25T22:27:36.290Z,14.30
2018-07-25T22:30:04.745Z,13.47
2018-07-25T22:32:33.162Z,12.93
2018-07-25T22:35:01.467Z,12.83
2018-07-25T22:37:29.814Z,12.83
2018-07-25T22:39:58.104Z,12.83
2018-07-25T22:42:26.356Z,11.70
2018-07-25T22:44:54.628Z,12.43
2018-07-25T22:47:22.908Z,11.67
2018-07-25T22:49:51.221Z,11.33
2018-07-25T22:52:19.489Z,11.30
2018-07-25T22:54:47.752Z,10.70
2018-07-25T22:57:16.036Z,11.20
2018-07-25T22:59:44.284Z,11.07
2018-07-25T23:02:12.576Z,11.03
2018-07-25T23:04:40.824Z,10.70
2018-07-25T23:07:09.102Z,10.43
2018-07-25T23:09:37.345Z,10.93
2018-07-25T23:12:05.641Z,9.83
2018-07-25T23:14:33.979Z,10.73
2018-07-25T23:17:02.236Z,10.77
2018-07-25T23:19:30.479Z,9.37
2018-07-25T23:21:58.747Z,9.90
2018-07-25T23:24:27.028Z,10.57
2018-07-25T23:26:55.334Z,10.63
2018-07-25T23:29:23.649Z,9.97
2018-07-25T23:31:51.959Z,10.43
2018-07-25T23:34:20.247Z,10.07
2018-07-25T23:36:48.544Z,10.13
2018-07-25T23:39:16.859Z,10.40
2018-07-25T23:41:45.117Z,10.60
2018-07-25T23:44:13.381Z,10.63
2018-07-25T23:46:41.643Z,10.37
2018-07-25T23:49:09.915Z,10.33
2018-07-25T23:51:38.201Z,10.83
2018-07-25T23:54:06.464Z,11.17
2018-07-25T23:56:34.721Z,11.70
2018-07-25T23:59:02.964Z,11.30
